sensor_id;sensor_type;location;lat;lon;timestamp;pressure;altitude;pressure_sealevel;temperature;humidity
50065;BME280;35951;47.848;-122.338;2022-08-11T00:00:43;101608.45;;;21.35;100.00
50065;BME280;35951;47.848;-122.338;2022-08-11T00:03:12;101610.63;;;21.35;100.00
50065;BME280;35951;47.848;-122.338;2022-08-11T00:05:45;101611.11;;;21.33;100.00
50065;BME280;35951;47.848;-122.338;2022-08-11T00:08:24;101617.34;;;21.31;100.00
50065;BME280;35951;47.848;-122.338;2022-08-11T00:10:57;101628.80;;;21.29;100.00
50065;BME280;35951;47.848;-122.338;2022-08-11T00:13:36;101628.80;;;21.29;100.00
50065;BME280;35951;47.848;-122.338;2022-08-11T00:16:16;101614.28;;;21.28;100.00
50065;BME280;35951;47.848;-122.338;2022-08-11T00:18:47;101624.34;;;21.32;100.00
50065;BME280;35951;47.848;-122.338;2022-08-11T00:21:17;101625.19;;;21.34;100.00
50065;BME280;35951;47.848;-122.338;2022-08-11T00:23:59;101623.44;;;21.34;100.00
50065;BME280;35951;47.848;-122.338;2022-08-11T00:26:27;101621.22;;;21.34;100.00
50065;BME280;35951;47.848;-122.338;2022-08-11T00:28:57;101626.51;;;21.34;100.00
50065;BME280;35951;47.848;-122.338;2022-08-11T00:31:30;101621.22;;;21.34;100.00
50065;BME280;35951;47.848;-122.338;2022-08-11T00:33:59;101632.23;;;21.35;100.00
50065;BME280;35951;47.848;-122.338;2022-08-11T00:36:37;101621.68;;;21.33;100.00
50065;BME280;35951;47.848;-122.338;2022-08-11T00:39:07;101630.89;;;21.36;100.00
50065;BME280;35951;47.848;-122.338;2022-08-11T00:50:36;101634.32;;;21.65;100.00
50065;BME280;35951;47.848;-122.338;2022-08-11T00:53:38;101623.09;;;21.75;100.00
50065;BME280;35951;47.848;-122.338;2022-08-11T00:56:20;101631.30;;;21.84;100.00
50065;BME280;35951;47.848;-122.338;2022-08-11T00:59:29;101636.45;;;21.90;100.00
50065;BME280;35951;47.848;-122.338;2022-08-11T01:02:18;101634.20;;;21.93;100.00
50065;BME280;35951;47.848;-122.338;2022-08-11T01:08:18;101639.33;;;22.00;100.00
50065;BME280;35951;47.848;-122.338;2022-08-11T01:23:02;101647.61;;;22.26;100.00
50065;BME280;35951;47.848;-122.338;2022-08-11T01:32:00;101645.22;;;22.36;100.00
50065;BME280;35951;47.848;-122.338;2022-08-11T01:38:20;101660.48;;;22.42;100.00
50065;BME280;35951;47.848;-122.338;2022-08-11T01:46:41;101659.59;;;22.43;100.00
50065;BME280;35951;47.848;-122.338;2022-08-11T01:52:05;101661.41;;;22.41;100.00
50065;BME280;35951;47.848;-122.338;2022-08-11T01:57:55;101678.65;;;22.40;100.00
50065;BME280;35951;47.848;-122.338;2022-08-11T02:03:49;101685.81;;;22.35;100.00
50065;BME280;35951;47.848;-122.338;2022-08-11T02:06:29;101688.52;;;22.32;100.00
50065;BME280;35951;47.848;-122.338;2022-08-11T02:12:01;101691.33;;;22.22;100.00
50065;BME280;35951;47.848;-122.338;2022-08-11T02:14:42;101692.77;;;22.18;100.00
50065;BME280;35951;47.848;-122.338;2022-08-11T02:20:22;101691.64;;;22.09;100.00
50065;BME280;35951;47.848;-122.338;2022-08-11T02:26:55;101696.75;;;21.95;100.00
50065;BME280;35951;47.848;-122.338;2022-08-11T02:29:17;101697.26;;;21.92;100.00
50065;BME280;35951;47.848;-122.338;2022-08-11T02:35:27;101701.89;;;21.80;100.00
50065;BME280;35951;47.848;-122.338;2022-08-11T02:38:10;101698.48;;;21.74;100.00
50065;BME280;35951;47.848;-122.338;2022-08-11T02:41:05;101691.17;;;21.65;100.00
50065;BME280;35951;47.848;-122.338;2022-08-11T02:47:12;101706.45;;;21.48;100.00
50065;BME280;35951;47.848;-122.338;2022-08-11T02:49:55;101700.39;;;21.41;100.00
50065;BME280;35951;47.848;-122.338;2022-08-11T02:52:42;101706.59;;;21.39;100.00
50065;BME280;35951;47.848;-122.338;2022-08-11T02:55:36;101711.50;;;21.36;100.00
50065;BME280;35951;47.848;-122.338;2022-08-11T03:01:27;101703.25;;;21.29;100.00
50065;BME280;35951;47.848;-122.338;2022-08-11T03:04:06;101713.38;;;21.28;100.00
50065;BME280;35951;47.848;-122.338;2022-08-11T03:09:49;101714.45;;;21.18;100.00
50065;BME280;35951;47.848;-122.338;2022-08-11T03:12:28;101708.37;;;21.13;100.00
50065;BME280;35951;47.848;-122.338;2022-08-11T03:15:15;101714.55;;;21.10;100.00
50065;BME280;35951;47.848;-122.338;2022-08-11T03:18:24;101708.05;;;21.05;100.00
50065;BME280;35951;47.848;-122.338;2022-08-11T03:21:19;101716.91;;;21.03;100.00
50065;BME280;35951;47.848;-122.338;2022-08-11T03:26:36;101728.37;;;21.00;100.00
50065;BME280;35951;47.848;-122.338;2022-08-11T03:34:45;101734.64;;;20.93;100.00
50065;BME280;35951;47.848;-122.338;2022-08-11T03:37:50;101738.63;;;20.92;100.00
50065;BME280;35951;47.848;-122.338;2022-08-11T03:40:40;101736.07;;;20.87;100.00
50065;BME280;35951;47.848;-122.338;2022-08-11T03:49:35;101732.28;;;20.75;100.00
50065;BME280;35951;47.848;-122.338;2022-08-11T04:04:43;101763.27;;;20.62;100.00
50065;BME280;35951;47.848;-122.338;2022-08-11T05:02:57;101806.09;;;20.08;100.00
50065;BME280;35951;47.848;-122.338;2022-08-11T05:08:27;101797.03;;;19.92;100.00
50065;BME280;35951;47.848;-122.338;2022-08-11T05:13:50;101796.69;;;19.79;100.00
50065;BME280;35951;47.848;-122.338;2022-08-11T05:16:52;101803.78;;;19.72;100.00
50065;BME280;35951;47.848;-122.338;2022-08-11T05:19:34;101808.67;;;19.65;100.00
50065;BME280;35951;47.848;-122.338;2022-08-11T05:22:24;101806.06;;;19.59;100.00
50065;BME280;35951;47.848;-122.338;2022-08-11T05:25:14;101813.63;;;19.52;100.00
50065;BME280;35951;47.848;-122.338;2022-08-11T05:31:02;101822.48;;;19.38;100.00
50065;BME280;35951;47.848;-122.338;2022-08-11T05:33:56;101827.81;;;19.34;100.00
50065;BME280;35951;47.848;-122.338;2022-08-11T05:37:05;101826.51;;;19.29;100.00
50065;BME280;35951;47.848;-122.338;2022-08-11T05:39:44;101828.73;;;19.25;100.00
50065;BME280;35951;47.848;-122.338;2022-08-11T05:42:37;101830.52;;;19.20;100.00
50065;BME280;35951;47.848;-122.338;2022-08-11T05:45:23;101827.04;;;19.15;100.00
50065;BME280;35951;47.848;-122.338;2022-08-11T05:48:10;101829.72;;;19.12;100.00
50065;BME280;35951;47.848;-122.338;2022-08-11T05:50:59;101824.91;;;19.08;100.00
50065;BME280;35951;47.848;-122.338;2022-08-11T05:53:54;101823.59;;;19.05;100.00
50065;BME280;35951;47.848;-122.338;2022-08-11T05:56:54;101831.09;;;19.01;100.00
50065;BME280;35951;47.848;-122.338;2022-08-11T05:59:25;101830.23;;;18.97;100.00
50065;BME280;35951;47.848;-122.338;2022-08-11T06:02:08;101833.73;;;18.93;100.00
50065;BME280;35951;47.848;-122.338;2022-08-11T06:04:36;101827.20;;;18.90;100.00
50065;BME280;35951;47.848;-122.338;2022-08-11T06:07:08;101826.75;;;18.88;100.00
50065;BME280;35951;47.848;-122.338;2022-08-11T06:09:45;101826.75;;;18.86;100.00
50065;BME280;35951;47.848;-122.338;2022-08-11T06:12:21;101824.16;;;18.82;100.00
50065;BME280;35951;47.848;-122.338;2022-08-11T06:14:53;101828.08;;;18.80;100.00
50065;BME280;35951;47.848;-122.338;2022-08-11T06:17:27;101834.25;;;18.77;100.00
50065;BME280;35951;47.848;-122.338;2022-08-11T06:20:08;101835.12;;;18.75;100.00
50065;BME280;35951;47.848;-122.338;2022-08-11T06:22:38;101828.98;;;18.73;100.00
50065;BME280;35951;47.848;-122.338;2022-08-11T06:25:07;101830.31;;;18.70;100.00
50065;BME280;35951;47.848;-122.338;2022-08-11T06:27:37;101829.89;;;18.67;100.00
50065;BME280;35951;47.848;-122.338;2022-08-11T06:30:07;101831.66;;;18.65;100.00
50065;BME280;35951;47.848;-122.338;2022-08-11T06:32:43;101829.90;;;18.63;100.00
50065;BME280;35951;47.848;-122.338;2022-08-11T06:38:05;101831.70;;;18.57;100.00
50065;BME280;35951;47.848;-122.338;2022-08-11T06:43:20;101834.78;;;18.54;100.00
50065;BME280;35951;47.848;-122.338;2022-08-11T06:46:00;101833.02;;;18.51;100.00
50065;BME280;35951;47.848;-122.338;2022-08-11T06:48:32;101826.44;;;18.50;100.00
50065;BME280;35951;47.848;-122.338;2022-08-11T06:51:07;101824.70;;;18.47;100.00
50065;BME280;35951;47.848;-122.338;2022-08-11T06:53:46;101827.34;;;18.42;100.00
50065;BME280;35951;47.848;-122.338;2022-08-11T06:56:22;101831.77;;;18.37;100.00
50065;BME280;35951;47.848;-122.338;2022-08-11T06:59:16;101829.13;;;18.31;100.00
50065;BME280;35951;47.848;-122.338;2022-08-11T07:02:12;101833.11;;;18.27;100.00
50065;BME280;35951;47.848;-122.338;2022-08-11T07:04:44;101823.48;;;18.21;100.00
50065;BME280;35951;47.848;-122.338;2022-08-11T07:14:27;101818.26;;;17.99;100.00
50065;BME280;35951;47.848;-122.338;2022-08-11T07:17:20;101820.02;;;17.94;100.00
50065;BME280;35951;47.848;-122.338;2022-08-11T07:19:57;101816.06;;;17.93;100.00
50065;BME280;35951;47.848;-122.338;2022-08-11T07:22:48;101816.52;;;17.92;100.00
50065;BME280;35951;47.848;-122.338;2022-08-11T07:25:41;101817.38;;;17.94;100.00
50065;BME280;35951;47.848;-122.338;2022-08-11T07:28:29;101820.88;;;17.95;100.00
50065;BME280;35951;47.848;-122.338;2022-08-11T07:31:31;101816.94;;;17.95;100.00
50065;BME280;35951;47.848;-122.338;2022-08-11T07:34:08;101814.75;;;17.94;100.00
50065;BME280;35951;47.848;-122.338;2022-08-11T07:36:44;101816.93;;;17.93;100.00
50065;BME280;35951;47.848;-122.338;2022-08-11T07:39:12;101813.89;;;17.94;100.00
50065;BME280;35951;47.848;-122.338;2022-08-11T07:41:41;101816.06;;;17.93;100.00
50065;BME280;35951;47.848;-122.338;2022-08-11T07:44:10;101814.75;;;17.93;100.00
50065;BME280;35951;47.848;-122.338;2022-08-11T07:46:40;101812.13;;;17.93;100.00
50065;BME280;35951;47.848;-122.338;2022-08-11T07:49:28;101816.52;;;17.92;100.00
50065;BME280;35951;47.848;-122.338;2022-08-11T07:52:15;101815.64;;;17.90;100.00
50065;BME280;35951;47.848;-122.338;2022-08-11T07:54:57;101810.80;;;17.90;100.00
50065;BME280;35951;47.848;-122.338;2022-08-11T07:57:27;101813.42;;;17.88;100.00
50065;BME280;35951;47.848;-122.338;2022-08-11T08:00:16;101812.56;;;17.88;100.00
50065;BME280;35951;47.848;-122.338;2022-08-11T08:03:03;101818.72;;;17.87;100.00
50065;BME280;35951;47.848;-122.338;2022-08-11T08:05:50;101813.45;;;17.87;100.00
50065;BME280;35951;47.848;-122.338;2022-08-11T08:08:36;101816.50;;;17.86;100.00
50065;BME280;35951;47.848;-122.338;2022-08-11T08:11:24;101818.67;;;17.83;100.00
50065;BME280;35951;47.848;-122.338;2022-08-11T08:14:10;101817.80;;;17.81;100.00
50065;BME280;35951;47.848;-122.338;2022-08-11T08:16:56;101815.17;;;17.80;100.00
50065;BME280;35951;47.848;-122.338;2022-08-11T08:19:45;101809.48;;;17.76;100.00
50065;BME280;35951;47.848;-122.338;2022-08-11T08:22:18;101812.10;;;17.70;100.00
50065;BME280;35951;47.848;-122.338;2022-08-11T08:24:47;101811.25;;;17.64;100.00
50065;BME280;35951;47.848;-122.338;2022-08-11T08:27:16;101819.13;;;17.61;100.00
50065;BME280;35951;47.848;-122.338;2022-08-11T08:29:45;101817.38;;;17.56;100.00
50065;BME280;35951;47.848;-122.338;2022-08-11T08:32:33;101816.05;;;17.54;100.00
50065;BME280;35951;47.848;-122.338;2022-08-11T08:35:07;101817.79;;;17.55;100.00
50065;BME280;35951;47.848;-122.338;2022-08-11T08:37:37;101818.69;;;17.54;100.00
50065;BME280;35951;47.848;-122.338;2022-08-11T08:40:07;101812.98;;;17.55;100.00
50065;BME280;35951;47.848;-122.338;2022-08-11T08:42:43;101817.38;;;17.56;100.00
50065;BME280;35951;47.848;-122.338;2022-08-11T08:45:17;101814.74;;;17.54;100.00
50065;BME280;35951;47.848;-122.338;2022-08-11T08:47:50;101823.06;;;17.51;100.00
50065;BME280;35951;47.848;-122.338;2022-08-11T08:50:35;101828.75;;;17.49;100.00
50065;BME280;35951;47.848;-122.338;2022-08-11T08:53:24;101827.86;;;17.48;100.00
50065;BME280;35951;47.848;-122.338;2022-08-11T08:55:58;101827.86;;;17.48;100.00
50065;BME280;35951;47.848;-122.338;2022-08-11T08:58:27;101818.67;;;17.43;100.00
50065;BME280;35951;47.848;-122.338;2022-08-11T09:00:58;101819.98;;;17.43;100.00
50065;BME280;35951;47.848;-122.338;2022-08-11T09:03:27;101819.13;;;17.43;100.00
50065;BME280;35951;47.848;-122.338;2022-08-11T09:05:55;101821.75;;;17.43;100.00
50065;BME280;35951;47.848;-122.338;2022-08-11T09:08:24;101815.18;;;17.43;100.00
50065;BME280;35951;47.848;-122.338;2022-08-11T09:10:54;101817.36;;;17.42;100.00
50065;BME280;35951;47.848;-122.338;2022-08-11T09:13:41;101816.48;;;17.38;100.00
50065;BME280;35951;47.848;-122.338;2022-08-11T09:16:10;101813.41;;;17.39;100.00
50065;BME280;35951;47.848;-122.338;2022-08-11T09:18:40;101805.96;;;17.37;100.00
50065;BME280;35951;47.848;-122.338;2022-08-11T09:21:12;101805.08;;;17.33;100.00
50065;BME280;35951;47.848;-122.338;2022-08-11T09:23:42;101805.09;;;17.27;100.00
50065;BME280;35951;47.848;-122.338;2022-08-11T09:26:28;101802.89;;;17.22;100.00
50065;BME280;35951;47.848;-122.338;2022-08-11T09:29:15;101810.75;;;17.19;100.00
50065;BME280;35951;47.848;-122.338;2022-08-11T09:31:42;101814.72;;;17.17;100.00
50065;BME280;35951;47.848;-122.338;2022-08-11T09:34:13;101812.50;;;17.17;100.00
50065;BME280;35951;47.848;-122.338;2022-08-11T09:36:42;101808.99;;;17.13;100.00
50065;BME280;35951;47.848;-122.338;2022-08-11T09:39:29;101810.74;;;17.11;100.00
50065;BME280;35951;47.848;-122.338;2022-08-11T09:42:16;101807.67;;;17.05;100.00
50065;BME280;35951;47.848;-122.338;2022-08-11T09:44:47;101809.42;;;16.97;100.00
50065;BME280;35951;47.848;-122.338;2022-08-11T09:47:30;101808.52;;;16.97;100.00
50065;BME280;35951;47.848;-122.338;2022-08-11T09:49:59;101806.34;;;16.98;100.00
50065;BME280;35951;47.848;-122.338;2022-08-11T09:52:39;101807.63;;;16.92;100.00
50065;BME280;35951;47.848;-122.338;2022-08-11T09:55:07;101802.81;;;16.85;100.00
50065;BME280;35951;47.848;-122.338;2022-08-11T09:57:40;101796.20;;;16.77;100.00
50065;BME280;35951;47.848;-122.338;2022-08-11T10:00:33;101797.05;;;16.70;100.00
50065;BME280;35951;47.848;-122.338;2022-08-11T10:03:05;101805.34;;;16.65;100.00
50065;BME280;35951;47.848;-122.338;2022-08-11T10:05:34;101804.45;;;16.61;100.00
50065;BME280;35951;47.848;-122.338;2022-08-11T10:08:25;101803.98;;;16.59;100.00
50065;BME280;35951;47.848;-122.338;2022-08-11T10:10:54;101807.05;;;16.58;100.00
50065;BME280;35951;47.848;-122.338;2022-08-11T10:13:26;101812.30;;;16.58;100.00
50065;BME280;35951;47.848;-122.338;2022-08-11T10:15:57;101815.80;;;16.60;100.00
50065;BME280;35951;47.848;-122.338;2022-08-11T10:18:36;101814.93;;;16.64;100.00
50065;BME280;35951;47.848;-122.338;2022-08-11T10:21:27;101814.97;;;16.69;100.00
50065;BME280;35951;47.848;-122.338;2022-08-11T10:24:09;101814.54;;;16.73;100.00
50065;BME280;35951;47.848;-122.338;2022-08-11T10:26:57;101812.80;;;16.75;100.00
50065;BME280;35951;47.848;-122.338;2022-08-11T10:29:32;101812.38;;;16.74;100.00
50065;BME280;35951;47.848;-122.338;2022-08-11T10:32:27;101818.06;;;16.78;100.00
50065;BME280;35951;47.848;-122.338;2022-08-11T10:35:15;101823.34;;;16.81;100.00
50065;BME280;35951;47.848;-122.338;2022-08-11T10:37:42;101816.33;;;16.81;100.00
50065;BME280;35951;47.848;-122.338;2022-08-11T10:40:14;101823.75;;;16.82;100.00
50065;BME280;35951;47.848;-122.338;2022-08-11T10:42:44;101822.48;;;16.83;100.00
50065;BME280;35951;47.848;-122.338;2022-08-11T10:45:34;101817.66;;;16.84;100.00
50065;BME280;35951;47.848;-122.338;2022-08-11T10:48:21;101818.12;;;16.85;100.00
50065;BME280;35951;47.848;-122.338;2022-08-11T10:50:51;101817.27;;;16.86;100.00
50065;BME280;35951;47.848;-122.338;2022-08-11T10:53:42;101819.89;;;16.86;100.00
50065;BME280;35951;47.848;-122.338;2022-08-11T10:56:31;101821.20;;;16.86;100.00
50065;BME280;35951;47.848;-122.338;2022-08-11T10:59:18;101814.64;;;16.86;100.00
50065;BME280;35951;47.848;-122.338;2022-08-11T11:01:47;101813.32;;;16.86;100.00
50065;BME280;35951;47.848;-122.338;2022-08-11T11:04:17;101816.80;;;16.85;100.00
50065;BME280;35951;47.848;-122.338;2022-08-11T11:06:57;101815.05;;;16.86;100.00
50065;BME280;35951;47.848;-122.338;2022-08-11T11:10:08;101814.64;;;16.86;100.00
50065;BME280;35951;47.848;-122.338;2022-08-11T11:12:24;101811.11;;;16.86;100.00
50065;BME280;35951;47.848;-122.338;2022-08-11T11:15:21;101809.37;;;16.85;100.00
50065;BME280;35951;47.848;-122.338;2022-08-11T11:18:14;101813.73;;;16.86;100.00
50065;BME280;35951;47.848;-122.338;2022-08-11T11:20:50;101807.62;;;16.85;100.00
50065;BME280;35951;47.848;-122.338;2022-08-11T11:23:32;101805.44;;;16.85;100.00
50065;BME280;35951;47.848;-122.338;2022-08-11T11:37:48;101800.98;;;16.68;100.00
50065;BME280;35951;47.848;-122.338;2022-08-11T11:40:17;101794.83;;;16.63;100.00
50065;BME280;35951;47.848;-122.338;2022-08-11T11:42:50;101794.38;;;16.58;100.00
50065;BME280;35951;47.848;-122.338;2022-08-11T11:45:21;101796.96;;;16.53;100.00
50065;BME280;35951;47.848;-122.338;2022-08-11T11:47:55;101793.46;;;16.46;100.00
50065;BME280;35951;47.848;-122.338;2022-08-11T11:50:30;101792.97;;;16.41;100.00
50065;BME280;35951;47.848;-122.338;2022-08-11T11:53:05;101794.72;;;16.36;100.00
50065;BME280;35951;47.848;-122.338;2022-08-11T11:55:34;101795.99;;;16.31;100.00
50065;BME280;35951;47.848;-122.338;2022-08-11T11:58:03;101787.70;;;16.30;100.00
50065;BME280;35951;47.848;-122.338;2022-08-11T12:00:43;101790.33;;;16.30;100.00
50065;BME280;35951;47.848;-122.338;2022-08-11T12:03:30;101789.87;;;16.30;100.00
50065;BME280;35951;47.848;-122.338;2022-08-11T12:05:59;101791.62;;;16.33;100.00
50065;BME280;35951;47.848;-122.338;2022-08-11T12:08:29;101785.48;;;16.29;100.00
50065;BME280;35951;47.848;-122.338;2022-08-11T12:11:03;101795.13;;;16.30;100.00
50065;BME280;35951;47.848;-122.338;2022-08-11T12:13:52;101792.48;;;16.27;100.00
50065;BME280;35951;47.848;-122.338;2022-08-11T12:16:21;101785.48;;;16.25;100.00
50065;BME280;35951;47.848;-122.338;2022-08-11T12:18:56;101787.64;;;16.19;100.00
50065;BME280;35951;47.848;-122.338;2022-08-11T12:21:22;101791.98;;;16.14;100.00
50065;BME280;35951;47.848;-122.338;2022-08-11T12:23:49;101795.85;;;16.08;100.00
50065;BME280;35951;47.848;-122.338;2022-08-11T12:26:36;101797.16;;;16.05;100.00
50065;BME280;35951;47.848;-122.338;2022-08-11T12:29:23;101789.73;;;16.06;100.00
50065;BME280;35951;47.848;-122.338;2022-08-11T12:31:57;101794.56;;;16.06;100.00
50065;BME280;35951;47.848;-122.338;2022-08-11T12:34:26;101787.99;;;16.05;100.00
50065;BME280;35951;47.848;-122.338;2022-08-11T12:36:59;101788.42;;;16.03;100.00
50065;BME280;35951;47.848;-122.338;2022-08-11T12:39:43;101789.73;;;16.03;100.00
50065;BME280;35951;47.848;-122.338;2022-08-11T12:42:32;101792.32;;;16.00;100.00
50065;BME280;35951;47.848;-122.338;2022-08-11T12:45:22;101796.68;;;15.98;100.00
50065;BME280;35951;47.848;-122.338;2022-08-11T12:48:12;101800.59;;;15.96;100.00
50065;BME280;35951;47.848;-122.338;2022-08-11T12:51:15;101804.06;;;15.90;100.00
50065;BME280;35951;47.848;-122.338;2022-08-11T12:56:46;101798.70;;;15.77;100.00
50065;BME280;35951;47.848;-122.338;2022-08-11T12:59:34;101798.27;;;15.74;100.00
50065;BME280;35951;47.848;-122.338;2022-08-11T13:02:23;101792.09;;;15.70;100.00
50065;BME280;35951;47.848;-122.338;2022-08-11T13:05:13;101797.33;;;15.70;100.00
50065;BME280;35951;47.848;-122.338;2022-08-11T13:07:42;101798.64;;;15.70;100.00
50065;BME280;35951;47.848;-122.338;2022-08-11T13:10:13;101802.11;;;15.69;100.00
50065;BME280;35951;47.848;-122.338;2022-08-11T13:12:44;101797.30;;;15.67;100.00
50065;BME280;35951;47.848;-122.338;2022-08-11T13:15:18;101800.80;;;15.66;100.00
50065;BME280;35951;47.848;-122.338;2022-08-11T13:17:48;101802.94;;;15.64;100.00
50065;BME280;35951;47.848;-122.338;2022-08-11T13:20:19;101809.45;;;15.61;100.00
50065;BME280;35951;47.848;-122.338;2022-08-11T13:22:49;101812.09;;;15.62;100.00
50065;BME280;35951;47.848;-122.338;2022-08-11T13:25:21;101808.16;;;15.62;100.00
50065;BME280;35951;47.848;-122.338;2022-08-11T13:27:52;101809.06;;;15.63;100.00
50065;BME280;35951;47.848;-122.338;2022-08-11T13:30:24;101808.62;;;15.63;100.00
50065;BME280;35951;47.848;-122.338;2022-08-11T13:33:13;101815.61;;;15.66;100.00
50065;BME280;35951;47.848;-122.338;2022-08-11T13:35:45;101809.52;;;15.67;100.00
50065;BME280;35951;47.848;-122.338;2022-08-11T13:38:17;101813.88;;;15.68;100.00
50065;BME280;35951;47.848;-122.338;2022-08-11T13:40:50;101809.95;;;15.68;100.00
50065;BME280;35951;47.848;-122.338;2022-08-11T13:43:20;101812.56;;;15.68;100.00
50065;BME280;35951;47.848;-122.338;2022-08-11T13:45:49;101818.27;;;15.69;100.00
50065;BME280;35951;47.848;-122.338;2022-08-11T13:48:19;101820.89;;;15.69;100.00
50065;BME280;35951;47.848;-122.338;2022-08-11T13:50:49;101819.12;;;15.68;100.00
50065;BME280;35951;47.848;-122.338;2022-08-11T13:53:36;101821.33;;;15.68;100.00
50065;BME280;35951;47.848;-122.338;2022-08-11T13:56:05;101823.50;;;15.69;100.00
50065;BME280;35951;47.848;-122.338;2022-08-11T13:58:34;101816.09;;;15.68;100.00
50065;BME280;35951;47.848;-122.338;2022-08-11T14:01:02;101816.09;;;15.68;100.00
50065;BME280;35951;47.848;-122.338;2022-08-11T14:03:32;101821.76;;;15.69;100.00
50065;BME280;35951;47.848;-122.338;2022-08-11T14:06:02;101823.48;;;15.67;100.00
50065;BME280;35951;47.848;-122.338;2022-08-11T14:08:33;101822.14;;;15.64;100.00
50065;BME280;35951;47.848;-122.338;2022-08-11T14:11:03;101828.28;;;15.65;100.00
50065;BME280;35951;47.848;-122.338;2022-08-11T14:13:52;101829.58;;;15.63;100.00
50065;BME280;35951;47.848;-122.338;2022-08-11T14:16:29;101819.50;;;15.60;100.00
50065;BME280;35951;47.848;-122.338;2022-08-11T14:19:00;101822.55;;;15.58;100.00
50065;BME280;35951;47.848;-122.338;2022-08-11T14:21:32;101817.33;;;15.59;100.00
50065;BME280;35951;47.848;-122.338;2022-08-11T14:24:18;101823.87;;;15.59;100.00
50065;BME280;35951;47.848;-122.338;2022-08-11T14:26:50;101822.97;;;15.59;100.00
50065;BME280;35951;47.848;-122.338;2022-08-11T14:29:20;101821.25;;;15.59;100.00
50065;BME280;35951;47.848;-122.338;2022-08-11T14:31:55;101823.86;;;15.61;100.00
50065;BME280;35951;47.848;-122.338;2022-08-11T14:34:25;101820.42;;;15.65;100.00
50065;BME280;35951;47.848;-122.338;2022-08-11T14:36:58;101819.55;;;15.66;100.00
50065;BME280;35951;47.848;-122.338;2022-08-11T14:39:30;101817.82;;;15.66;100.00
50065;BME280;35951;47.848;-122.338;2022-08-11T14:42:04;101826.13;;;15.69;100.00
50065;BME280;35951;47.848;-122.338;2022-08-11T14:45:03;101822.20;;;15.69;100.00
50065;BME280;35951;47.848;-122.338;2022-08-11T14:47:31;101824.38;;;15.69;100.00
50065;BME280;35951;47.848;-122.338;2022-08-11T14:50:01;101826.59;;;15.70;100.00
50065;BME280;35951;47.848;-122.338;2022-08-11T14:52:32;101825.70;;;15.71;100.00
50065;BME280;35951;47.848;-122.338;2022-08-11T14:55:03;101823.08;;;15.71;100.00
50065;BME280;35951;47.848;-122.338;2022-08-11T14:57:50;101824.41;;;15.72;100.00
50065;BME280;35951;47.848;-122.338;2022-08-11T15:00:19;101829.27;;;15.76;100.00
50065;BME280;35951;47.848;-122.338;2022-08-11T15:02:47;101829.31;;;15.82;100.00
50065;BME280;35951;47.848;-122.338;2022-08-11T15:05:33;101824.98;;;15.87;100.00
50065;BME280;35951;47.848;-122.338;2022-08-11T15:08:01;101825.04;;;15.95;100.00
50065;BME280;35951;47.848;-122.338;2022-08-11T15:10:29;101825.53;;;16.02;100.00
50065;BME280;35951;47.848;-122.338;2022-08-11T15:12:58;101826.03;;;16.11;100.00
50065;BME280;35951;47.848;-122.338;2022-08-11T15:15:27;101821.72;;;16.19;100.00
50065;BME280;35951;47.848;-122.338;2022-08-11T15:18:15;101820.00;;;16.26;100.00
50065;BME280;35951;47.848;-122.338;2022-08-11T15:20:44;101819.17;;;16.35;100.00
50065;BME280;35951;47.848;-122.338;2022-08-11T15:23:31;101806.52;;;16.40;100.00
50065;BME280;35951;47.848;-122.338;2022-08-11T15:26:39;101806.13;;;16.47;100.00
50065;BME280;35951;47.848;-122.338;2022-08-11T15:29:09;101807.05;;;16.54;100.00
50065;BME280;35951;47.848;-122.338;2022-08-11T15:31:57;101809.23;;;16.59;100.00
50065;BME280;35951;47.848;-122.338;2022-08-11T15:34:46;101807.96;;;16.65;100.00
50065;BME280;35951;47.848;-122.338;2022-08-11T15:37:35;101809.27;;;16.69;100.00
50065;BME280;35951;47.848;-122.338;2022-08-11T15:40:10;101804.92;;;16.75;100.00
50065;BME280;35951;47.848;-122.338;2022-08-11T15:43:17;101803.20;;;16.80;100.00
50065;BME280;35951;47.848;-122.338;2022-08-11T15:46:22;101803.63;;;16.82;100.00
50065;BME280;35951;47.848;-122.338;2022-08-11T15:48:55;101801.94;;;16.83;100.00
50065;BME280;35951;47.848;-122.338;2022-08-11T15:51:32;101804.52;;;16.81;100.00
50065;BME280;35951;47.848;-122.338;2022-08-11T15:54:22;101799.69;;;16.82;100.00
50065;BME280;35951;47.848;-122.338;2022-08-11T15:56:51;101803.69;;;16.85;100.00
50065;BME280;35951;47.848;-122.338;2022-08-11T15:59:20;101798.45;;;16.88;100.00
50065;BME280;35951;47.848;-122.338;2022-08-11T16:02:10;101792.77;;;16.91;100.00
50065;BME280;35951;47.848;-122.338;2022-08-11T16:04:58;101789.25;;;16.92;100.00
50065;BME280;35951;47.848;-122.338;2022-08-11T16:07:33;101789.72;;;16.94;100.00
50065;BME280;35951;47.848;-122.338;2022-08-11T16:12:42;101792.36;;;16.97;100.00
50065;BME280;35951;47.848;-122.338;2022-08-11T16:15:10;101788.84;;;16.98;100.00
50065;BME280;35951;47.848;-122.338;2022-08-11T16:18:01;101787.09;;;17.00;100.00
50065;BME280;35951;47.848;-122.338;2022-08-11T16:20:32;101784.92;;;17.01;100.00